sensor_id;sensor_type;location;lat;lon;timestamp;P1;durP1;ratioP1;P2;durP2;ratioP2
22270;SDS011;11304;53.520;10.104;2022-12-29T00:01:41;4.53;;;2.50;;
22270;SDS011;11304;53.520;10.104;2022-12-29T00:04:09;4.25;;;2.47;;
22270;SDS011;11304;53.520;10.104;2022-12-29T00:06:37;3.85;;;2.53;;
22270;SDS011;11304;53.520;10.104;2022-12-29T00:09:03;7.28;;;2.70;;
22270;SDS011;11304;53.520;10.104;2022-12-29T00:11:29;8.27;;;2.35;;
22270;SDS011;11304;53.520;10.104;2022-12-29T00:13:55;3.63;;;2.50;;
22270;SDS011;11304;53.520;10.104;2022-12-29T00:16:42;3.13;;;2.38;;
22270;SDS011;11304;53.520;10.104;2022-12-29T00:19:08;3.80;;;2.40;;
22270;SDS011;11304;53.520;10.104;2022-12-29T00:21:53;3.50;;;2.40;;
22270;SDS011;11304;53.520;10.104;2022-12-29T00:24:38;3.75;;;2.40;;
22270;SDS011;11304;53.520;10.104;2022-12-29T00:27:23;3.38;;;2.40;;
22270;SDS011;11304;53.520;10.104;2022-12-29T00:30:09;6.25;;;2.45;;
22270;SDS011;11304;53.520;10.104;2022-12-29T00:32:54;4.15;;;2.28;;
22270;SDS011;11304;53.520;10.104;2022-12-29T00:35:40;5.20;;;2.70;;
22270;SDS011;11304;53.520;10.104;2022-12-29T00:38:09;3.70;;;2.30;;
22270;SDS011;11304;53.520;10.104;2022-12-29T00:40:55;4.20;;;2.50;;
22270;SDS011;11304;53.520;10.104;2022-12-29T00:43:39;3.60;;;2.20;;
22270;SDS011;11304;53.520;10.104;2022-12-29T00:46:25;4.90;;;2.58;;
22270;SDS011;11304;53.520;10.104;2022-12-29T00:48:51;5.60;;;2.72;;
22270;SDS011;11304;53.520;10.104;2022-12-29T00:51:35;3.67;;;2.55;;
22270;SDS011;11304;53.520;10.104;2022-12-29T00:54:01;4.90;;;2.60;;
22270;SDS011;11304;53.520;10.104;2022-12-29T00:56:28;5.57;;;2.80;;
22270;SDS011;11304;53.520;10.104;2022-12-29T00:58:54;5.55;;;2.60;;
22270;SDS011;11304;53.520;10.104;2022-12-29T01:01:20;5.50;;;2.53;;
22270;SDS011;11304;53.520;10.104;2022-12-29T01:03:46;3.90;;;2.60;;
22270;SDS011;11304;53.520;10.104;2022-12-29T01:06:12;4.03;;;2.90;;
22270;SDS011;11304;53.520;10.104;2022-12-29T01:08:38;5.00;;;3.00;;
22270;SDS011;11304;53.520;10.104;2022-12-29T01:11:08;4.68;;;2.55;;
22270;SDS011;11304;53.520;10.104;2022-12-29T01:13:35;4.65;;;2.58;;
22270;SDS011;11304;53.520;10.104;2022-12-29T01:16:03;3.13;;;2.15;;
22270;SDS011;11304;53.520;10.104;2022-12-29T01:18:29;3.50;;;2.33;;
22270;SDS011;11304;53.520;10.104;2022-12-29T01:21:05;5.95;;;2.97;;
22270;SDS011;11304;53.520;10.104;2022-12-29T01:23:32;4.68;;;2.58;;
22270;SDS011;11304;53.520;10.104;2022-12-29T01:26:07;3.15;;;2.83;;
22270;SDS011;11304;53.520;10.104;2022-12-29T01:28:34;4.32;;;2.35;;
22270;SDS011;11304;53.520;10.104;2022-12-29T01:31:00;4.32;;;3.00;;
22270;SDS011;11304;53.520;10.104;2022-12-29T01:33:26;6.88;;;2.80;;
22270;SDS011;11304;53.520;10.104;2022-12-29T01:35:52;3.20;;;2.80;;
22270;SDS011;11304;53.520;10.104;2022-12-29T01:38:19;3.47;;;2.40;;
22270;SDS011;11304;53.520;10.104;2022-12-29T01:40:45;4.82;;;2.10;;
22270;SDS011;11304;53.520;10.104;2022-12-29T01:43:12;6.38;;;2.42;;
22270;SDS011;11304;53.520;10.104;2022-12-29T01:45:40;3.28;;;2.47;;
22270;SDS011;11304;53.520;10.104;2022-12-29T01:50:38;3.60;;;2.75;;
22270;SDS011;11304;53.520;10.104;2022-12-29T01:53:09;4.43;;;2.80;;
22270;SDS011;11304;53.520;10.104;2022-12-29T01:55:38;5.35;;;3.30;;
22270;SDS011;11304;53.520;10.104;2022-12-29T01:58:06;4.18;;;2.97;;
22270;SDS011;11304;53.520;10.104;2022-12-29T02:00:32;7.22;;;3.20;;
22270;SDS011;11304;53.520;10.104;2022-12-29T02:02:58;3.25;;;2.80;;
22270;SDS011;11304;53.520;10.104;2022-12-29T02:05:28;4.32;;;3.00;;
22270;SDS011;11304;53.520;10.104;2022-12-29T02:07:56;3.83;;;3.35;;
22270;SDS011;11304;53.520;10.104;2022-12-29T02:10:23;4.00;;;3.10;;
22270;SDS011;11304;53.520;10.104;2022-12-29T02:12:50;4.65;;;3.00;;
22270;SDS011;11304;53.520;10.104;2022-12-29T02:15:16;6.60;;;3.55;;
22270;SDS011;11304;53.520;10.104;2022-12-29T02:34:10;3.88;;;3.22;;
22270;SDS011;11304;53.520;10.104;2022-12-29T02:43:48;4.47;;;2.60;;
22270;SDS011;11304;53.520;10.104;2022-12-29T02:51:52;3.72;;;2.50;;
22270;SDS011;11304;53.520;10.104;2022-12-29T02:54:19;3.80;;;2.83;;
22270;SDS011;11304;53.520;10.104;2022-12-29T02:57:11;4.97;;;2.72;;
22270;SDS011;11304;53.520;10.104;2022-12-29T02:59:37;4.30;;;2.95;;
22270;SDS011;11304;53.520;10.104;2022-12-29T03:02:11;3.75;;;2.70;;
22270;SDS011;11304;53.520;10.104;2022-12-29T03:17:33;4.13;;;2.28;;
22270;SDS011;11304;53.520;10.104;2022-12-29T03:20:08;3.22;;;2.17;;
22270;SDS011;11304;53.520;10.104;2022-12-29T03:22:36;3.22;;;2.35;;
22270;SDS011;11304;53.520;10.104;2022-12-29T03:27:41;3.00;;;2.25;;
22270;SDS011;11304;53.520;10.104;2022-12-29T03:30:07;4.00;;;2.22;;
22270;SDS011;11304;53.520;10.104;2022-12-29T03:32:47;2.80;;;2.20;;
22270;SDS011;11304;53.520;10.104;2022-12-29T03:35:15;4.25;;;2.20;;
22270;SDS011;11304;53.520;10.104;2022-12-29T03:37:49;3.17;;;1.90;;
22270;SDS011;11304;53.520;10.104;2022-12-29T03:40:17;2.72;;;2.05;;
22270;SDS011;11304;53.520;10.104;2022-12-29T03:42:44;2.08;;;1.88;;
22270;SDS011;11304;53.520;10.104;2022-12-29T03:45:11;4.05;;;2.10;;
22270;SDS011;11304;53.520;10.104;2022-12-29T03:47:37;2.50;;;2.00;;
22270;SDS011;11304;53.520;10.104;2022-12-29T03:50:03;2.70;;;2.10;;
22270;SDS011;11304;53.520;10.104;2022-12-29T03:52:29;2.15;;;1.95;;
22270;SDS011;11304;53.520;10.104;2022-12-29T03:54:55;2.42;;;1.80;;
22270;SDS011;11304;53.520;10.104;2022-12-29T03:57:21;2.55;;;1.70;;
22270;SDS011;11304;53.520;10.104;2022-12-29T03:59:47;3.17;;;2.05;;
22270;SDS011;11304;53.520;10.104;2022-12-29T04:02:13;2.58;;;1.88;;
22270;SDS011;11304;53.520;10.104;2022-12-29T04:04:40;3.42;;;1.63;;
22270;SDS011;11304;53.520;10.104;2022-12-29T04:07:06;3.80;;;1.90;;
22270;SDS011;11304;53.520;10.104;2022-12-29T04:09:32;2.92;;;1.60;;
22270;SDS011;11304;53.520;10.104;2022-12-29T04:11:58;4.78;;;1.65;;
22270;SDS011;11304;53.520;10.104;2022-12-29T04:14:24;3.65;;;1.35;;
22270;SDS011;11304;53.520;10.104;2022-12-29T04:16:50;2.15;;;1.45;;
22270;SDS011;11304;53.520;10.104;2022-12-29T04:19:16;3.03;;;1.83;;
22270;SDS011;11304;53.520;10.104;2022-12-29T04:21:42;2.55;;;1.40;;
22270;SDS011;11304;53.520;10.104;2022-12-29T04:24:08;2.65;;;1.60;;
22270;SDS011;11304;53.520;10.104;2022-12-29T04:26:34;3.70;;;1.40;;
22270;SDS011;11304;53.520;10.104;2022-12-29T04:29:00;2.40;;;1.55;;
22270;SDS011;11304;53.520;10.104;2022-12-29T04:31:26;3.92;;;1.52;;
22270;SDS011;11304;53.520;10.104;2022-12-29T04:33:52;2.53;;;1.50;;
22270;SDS011;11304;53.520;10.104;2022-12-29T04:36:19;1.85;;;1.52;;
22270;SDS011;11304;53.520;10.104;2022-12-29T04:47:55;2.33;;;1.40;;
22270;SDS011;11304;53.520;10.104;2022-12-29T04:50:21;1.50;;;1.30;;
22270;SDS011;11304;53.520;10.104;2022-12-29T04:52:47;2.03;;;1.38;;
22270;SDS011;11304;53.520;10.104;2022-12-29T04:55:14;2.50;;;1.40;;
22270;SDS011;11304;53.520;10.104;2022-12-29T04:57:40;1.55;;;1.30;;
22270;SDS011;11304;53.520;10.104;2022-12-29T05:00:06;1.70;;;1.27;;
22270;SDS011;11304;53.520;10.104;2022-12-29T05:02:34;3.72;;;1.25;;
22270;SDS011;11304;53.520;10.104;2022-12-29T05:05:00;1.83;;;1.20;;
22270;SDS011;11304;53.520;10.104;2022-12-29T05:07:26;1.95;;;1.40;;
22270;SDS011;11304;53.520;10.104;2022-12-29T05:09:52;2.30;;;1.20;;
22270;SDS011;11304;53.520;10.104;2022-12-29T05:12:18;1.88;;;1.20;;
22270;SDS011;11304;53.520;10.104;2022-12-29T05:14:45;2.75;;;1.33;;
22270;SDS011;11304;53.520;10.104;2022-12-29T05:17:11;2.08;;;1.38;;
22270;SDS011;11304;53.520;10.104;2022-12-29T05:19:37;2.85;;;1.38;;
22270;SDS011;11304;53.520;10.104;2022-12-29T05:22:03;1.67;;;1.40;;
22270;SDS011;11304;53.520;10.104;2022-12-29T05:24:29;2.03;;;1.42;;
22270;SDS011;11304;53.520;10.104;2022-12-29T05:26:55;2.80;;;1.13;;
22270;SDS011;11304;53.520;10.104;2022-12-29T05:29:21;1.67;;;1.35;;
22270;SDS011;11304;53.520;10.104;2022-12-29T05:31:47;4.13;;;1.50;;
22270;SDS011;11304;53.520;10.104;2022-12-29T05:34:14;1.60;;;1.08;;
22270;SDS011;11304;53.520;10.104;2022-12-29T05:36:40;2.38;;;1.40;;
22270;SDS011;11304;53.520;10.104;2022-12-29T05:39:06;2.13;;;1.38;;
22270;SDS011;11304;53.520;10.104;2022-12-29T05:41:32;2.53;;;1.30;;
22270;SDS011;11304;53.520;10.104;2022-12-29T05:43:59;1.83;;;1.13;;
22270;SDS011;11304;53.520;10.104;2022-12-29T05:46:25;4.13;;;1.58;;
22270;SDS011;11304;53.520;10.104;2022-12-29T05:48:51;1.40;;;1.30;;
22270;SDS011;11304;53.520;10.104;2022-12-29T05:51:17;1.55;;;1.38;;
22270;SDS011;11304;53.520;10.104;2022-12-29T05:53:43;2.38;;;1.30;;
22270;SDS011;11304;53.520;10.104;2022-12-29T05:56:09;2.00;;;1.33;;
22270;SDS011;11304;53.520;10.104;2022-12-29T05:58:35;1.35;;;1.20;;
22270;SDS011;11304;53.520;10.104;2022-12-29T06:01:02;2.30;;;1.40;;
22270;SDS011;11304;53.520;10.104;2022-12-29T06:03:28;2.45;;;1.30;;
22270;SDS011;11304;53.520;10.104;2022-12-29T06:05:54;2.47;;;1.30;;
22270;SDS011;11304;53.520;10.104;2022-12-29T06:08:20;1.23;;;1.10;;
22270;SDS011;11304;53.520;10.104;2022-12-29T06:10:46;2.70;;;1.30;;
22270;SDS011;11304;53.520;10.104;2022-12-29T06:13:12;3.58;;;1.15;;
22270;SDS011;11304;53.520;10.104;2022-12-29T06:15:38;3.55;;;1.27;;
22270;SDS011;11304;53.520;10.104;2022-12-29T06:18:04;3.85;;;1.48;;
22270;SDS011;11304;53.520;10.104;2022-12-29T06:20:30;3.88;;;1.20;;
22270;SDS011;11304;53.520;10.104;2022-12-29T06:22:56;2.28;;;1.08;;
22270;SDS011;11304;53.520;10.104;2022-12-29T06:25:22;4.72;;;1.20;;
22270;SDS011;11304;53.520;10.104;2022-12-29T06:27:48;2.33;;;1.20;;
22270;SDS011;11304;53.520;10.104;2022-12-29T06:30:15;1.67;;;1.23;;
22270;SDS011;11304;53.520;10.104;2022-12-29T06:32:41;1.50;;;1.20;;
22270;SDS011;11304;53.520;10.104;2022-12-29T06:35:08;6.07;;;1.30;;
22270;SDS011;11304;53.520;10.104;2022-12-29T06:37:34;0.93;;;0.90;;
22270;SDS011;11304;53.520;10.104;2022-12-29T06:40:00;1.25;;;0.90;;
22270;SDS011;11304;53.520;10.104;2022-12-29T06:42:27;3.20;;;1.10;;
22270;SDS011;11304;53.520;10.104;2022-12-29T06:44:53;2.08;;;1.08;;
22270;SDS011;11304;53.520;10.104;2022-12-29T06:47:21;3.47;;;1.00;;
22270;SDS011;11304;53.520;10.104;2022-12-29T06:49:47;2.17;;;1.02;;
22270;SDS011;11304;53.520;10.104;2022-12-29T06:52:13;1.50;;;0.63;;
22270;SDS011;11304;53.520;10.104;2022-12-29T06:54:40;1.95;;;0.70;;
22270;SDS011;11304;53.520;10.104;2022-12-29T06:57:06;2.03;;;0.98;;
22270;SDS011;11304;53.520;10.104;2022-12-29T06:59:32;1.52;;;0.68;;
22270;SDS011;11304;53.520;10.104;2022-12-29T07:01:58;1.13;;;0.60;;
22270;SDS011;11304;53.520;10.104;2022-12-29T07:04:26;2.92;;;1.00;;
22270;SDS011;11304;53.520;10.104;2022-12-29T07:06:52;2.05;;;0.80;;
22270;SDS011;11304;53.520;10.104;2022-12-29T07:09:19;2.00;;;0.68;;
22270;SDS011;11304;53.520;10.104;2022-12-29T07:11:45;2.28;;;0.65;;
22270;SDS011;11304;53.520;10.104;2022-12-29T07:14:11;2.03;;;1.00;;
22270;SDS011;11304;53.520;10.104;2022-12-29T07:16:37;1.80;;;1.00;;
22270;SDS011;11304;53.520;10.104;2022-12-29T07:19:04;1.90;;;1.20;;
22270;SDS011;11304;53.520;10.104;2022-12-29T07:21:30;3.42;;;1.17;;
22270;SDS011;11304;53.520;10.104;2022-12-29T07:23:57;2.78;;;1.20;;
22270;SDS011;11304;53.520;10.104;2022-12-29T07:26:23;2.35;;;1.00;;
22270;SDS011;11304;53.520;10.104;2022-12-29T07:28:49;3.75;;;1.20;;
22270;SDS011;11304;53.520;10.104;2022-12-29T07:31:16;2.97;;;1.70;;
22270;SDS011;11304;53.520;10.104;2022-12-29T07:33:43;2.85;;;1.55;;
22270;SDS011;11304;53.520;10.104;2022-12-29T07:36:10;1.83;;;1.23;;
22270;SDS011;11304;53.520;10.104;2022-12-29T07:38:36;1.15;;;1.00;;
22270;SDS011;11304;53.520;10.104;2022-12-29T07:41:02;2.47;;;1.25;;
22270;SDS011;11304;53.520;10.104;2022-12-29T07:43:28;4.15;;;1.20;;
22270;SDS011;11304;53.520;10.104;2022-12-29T07:45:54;3.22;;;1.08;;
22270;SDS011;11304;53.520;10.104;2022-12-29T07:48:20;2.55;;;1.17;;
22270;SDS011;11304;53.520;10.104;2022-12-29T07:50:47;3.38;;;0.77;;
22270;SDS011;11304;53.520;10.104;2022-12-29T07:53:13;2.55;;;1.00;;
22270;SDS011;11304;53.520;10.104;2022-12-29T07:55:39;2.17;;;0.85;;
22270;SDS011;11304;53.520;10.104;2022-12-29T07:58:06;8.07;;;1.27;;
22270;SDS011;11304;53.520;10.104;2022-12-29T08:00:32;4.93;;;1.10;;
22270;SDS011;11304;53.520;10.104;2022-12-29T08:02:58;3.55;;;1.05;;
22270;SDS011;11304;53.520;10.104;2022-12-29T08:05:24;3.45;;;1.10;;
22270;SDS011;11304;53.520;10.104;2022-12-29T08:07:50;2.45;;;1.20;;
22270;SDS011;11304;53.520;10.104;2022-12-29T08:10:16;2.40;;;1.10;;
22270;SDS011;11304;53.520;10.104;2022-12-29T08:12:43;3.72;;;1.10;;
22270;SDS011;11304;53.520;10.104;2022-12-29T08:15:10;0.77;;;0.70;;
22270;SDS011;11304;53.520;10.104;2022-12-29T08:17:37;2.53;;;0.93;;
22270;SDS011;11304;53.520;10.104;2022-12-29T08:20:03;1.52;;;0.80;;
22270;SDS011;11304;53.520;10.104;2022-12-29T08:22:29;3.55;;;1.05;;
22270;SDS011;11304;53.520;10.104;2022-12-29T08:24:56;2.33;;;1.30;;
22270;SDS011;11304;53.520;10.104;2022-12-29T08:27:22;4.07;;;1.00;;
22270;SDS011;11304;53.520;10.104;2022-12-29T08:29:48;3.08;;;1.10;;
22270;SDS011;11304;53.520;10.104;2022-12-29T08:32:14;3.03;;;0.98;;
22270;SDS011;11304;53.520;10.104;2022-12-29T08:34:40;1.55;;;0.73;;
22270;SDS011;11304;53.520;10.104;2022-12-29T08:37:06;1.95;;;0.80;;
22270;SDS011;11304;53.520;10.104;2022-12-29T08:39:32;3.67;;;0.90;;
22270;SDS011;11304;53.520;10.104;2022-12-29T08:41:59;3.70;;;1.10;;
22270;SDS011;11304;53.520;10.104;2022-12-29T08:44:25;4.38;;;0.95;;
22270;SDS011;11304;53.520;10.104;2022-12-29T08:46:51;3.25;;;1.23;;
22270;SDS011;11304;53.520;10.104;2022-12-29T08:49:17;3.50;;;0.82;;
22270;SDS011;11304;53.520;10.104;2022-12-29T08:51:43;1.92;;;0.93;;
22270;SDS011;11304;53.520;10.104;2022-12-29T08:54:09;2.63;;;0.90;;
22270;SDS011;11304;53.520;10.104;2022-12-29T08:56:35;2.38;;;0.90;;
22270;SDS011;11304;53.520;10.104;2022-12-29T08:59:02;5.13;;;1.00;;
22270;SDS011;11304;53.520;10.104;2022-12-29T09:01:28;2.40;;;0.80;;
22270;SDS011;11304;53.520;10.104;2022-12-29T09:03:55;3.63;;;0.60;;
22270;SDS011;11304;53.520;10.104;2022-12-29T09:06:21;2.72;;;0.88;;
22270;SDS011;11304;53.520;10.104;2022-12-29T09:08:47;3.30;;;0.80;;
22270;SDS011;11304;53.520;10.104;2022-12-29T09:13:39;2.95;;;0.65;;
22270;SDS011;11304;53.520;10.104;2022-12-29T09:16:06;3.42;;;0.65;;
22270;SDS011;11304;53.520;10.104;2022-12-29T09:18:32;2.25;;;0.68;;
22270;SDS011;11304;53.520;10.104;2022-12-29T09:21:01;2.10;;;0.70;;
22270;SDS011;11304;53.520;10.104;2022-12-29T09:23:27;5.55;;;0.82;;
22270;SDS011;11304;53.520;10.104;2022-12-29T09:25:54;1.20;;;0.45;;
22270;SDS011;11304;53.520;10.104;2022-12-29T09:28:20;4.50;;;0.95;;
22270;SDS011;11304;53.520;10.104;2022-12-29T09:30:47;5.50;;;0.90;;
22270;SDS011;11304;53.520;10.104;2022-12-29T09:33:13;5.03;;;1.05;;
22270;SDS011;11304;53.520;10.104;2022-12-29T09:35:43;5.32;;;0.90;;
22270;SDS011;11304;53.520;10.104;2022-12-29T09:38:09;4.28;;;0.98;;
22270;SDS011;11304;53.520;10.104;2022-12-29T09:40:36;10.43;;;1.30;;
22270;SDS011;11304;53.520;10.104;2022-12-29T09:47:57;6.47;;;1.58;;
22270;SDS011;11304;53.520;10.104;2022-12-29T09:50:24;5.05;;;1.13;;
22270;SDS011;11304;53.520;10.104;2022-12-29T09:52:57;11.27;;;1.33;;
22270;SDS011;11304;53.520;10.104;2022-12-29T09:55:35;5.50;;;1.30;;
22270;SDS011;11304;53.520;10.104;2022-12-29T09:58:03;3.58;;;1.20;;
22270;SDS011;11304;53.520;10.104;2022-12-29T10:03:16;9.02;;;1.45;;
22270;SDS011;11304;53.520;10.104;2022-12-29T10:05:57;4.13;;;0.93;;
22270;SDS011;11304;53.520;10.104;2022-12-29T10:16:35;5.85;;;1.33;;
22270;SDS011;11304;53.520;10.104;2022-12-29T10:19:06;7.10;;;1.00;;
22270;SDS011;11304;53.520;10.104;2022-12-29T10:24:16;5.63;;;1.30;;
22270;SDS011;11304;53.520;10.104;2022-12-29T10:26:43;5.07;;;0.93;;
22270;SDS011;11304;53.520;10.104;2022-12-29T10:31:44;3.97;;;1.20;;
22270;SDS011;11304;53.520;10.104;2022-12-29T10:34:29;8.05;;;1.33;;
22270;SDS011;11304;53.520;10.104;2022-12-29T10:37:02;7.97;;;1.20;;
22270;SDS011;11304;53.520;10.104;2022-12-29T10:39:30;8.23;;;1.42;;
22270;SDS011;11304;53.520;10.104;2022-12-29T10:42:01;3.55;;;1.00;;
22270;SDS011;11304;53.520;10.104;2022-12-29T10:44:30;6.13;;;1.02;;
22270;SDS011;11304;53.520;10.104;2022-12-29T10:46:59;7.97;;;1.45;;
22270;SDS011;11304;53.520;10.104;2022-12-29T10:49:26;5.20;;;1.10;;
22270;SDS011;11304;53.520;10.104;2022-12-29T10:51:54;3.53;;;1.17;;
22270;SDS011;11304;53.520;10.104;2022-12-29T10:57:05;7.40;;;1.40;;
22270;SDS011;11304;53.520;10.104;2022-12-29T10:59:35;5.13;;;1.60;;
22270;SDS011;11304;53.520;10.104;2022-12-29T11:07:08;9.63;;;1.60;;
22270;SDS011;11304;53.520;10.104;2022-12-29T11:09:36;6.68;;;1.60;;
22270;SDS011;11304;53.520;10.104;2022-12-29T11:12:19;7.82;;;1.52;;
22270;SDS011;11304;53.520;10.104;2022-12-29T11:14:45;5.15;;;1.05;;
22270;SDS011;11304;53.520;10.104;2022-12-29T11:17:16;4.68;;;1.05;;
22270;SDS011;11304;53.520;10.104;2022-12-29T11:19:43;4.95;;;0.77;;
22270;SDS011;11304;53.520;10.104;2022-12-29T11:29:47;6.25;;;1.50;;
22270;SDS011;11304;53.520;10.104;2022-12-29T11:32:21;6.55;;;1.13;;
22270;SDS011;11304;53.520;10.104;2022-12-29T11:34:47;5.25;;;0.90;;
22270;SDS011;11304;53.520;10.104;2022-12-29T11:37:15;7.00;;;1.25;;
22270;SDS011;11304;53.520;10.104;2022-12-29T11:42:42;5.95;;;1.05;;
22270;SDS011;11304;53.520;10.104;2022-12-29T11:45:18;5.32;;;1.27;;
22270;SDS011;11304;53.520;10.104;2022-12-29T11:47:47;7.10;;;1.40;;
22270;SDS011;11304;53.520;10.104;2022-12-29T11:50:24;4.82;;;1.08;;
22270;SDS011;11304;53.520;10.104;2022-12-29T11:52:57;4.63;;;1.43;;
22270;SDS011;11304;53.520;10.104;2022-12-29T11:55:24;7.38;;;1.40;;
22270;SDS011;11304;53.520;10.104;2022-12-29T11:57:51;4.45;;;0.80;;
22270;SDS011;11304;53.520;10.104;2022-12-29T12:00:19;5.28;;;1.20;;
22270;SDS011;11304;53.520;10.104;2022-12-29T12:07:45;3.75;;;0.90;;
22270;SDS011;11304;53.520;10.104;2022-12-29T12:10:15;5.50;;;1.10;;
22270;SDS011;11304;53.520;10.104;2022-12-29T12:15:20;8.90;;;1.30;;
22270;SDS011;11304;53.520;10.104;2022-12-29T12:22:46;6.13;;;1.35;;
22270;SDS011;11304;53.520;10.104;2022-12-29T12:30:17;5.65;;;1.58;;
22270;SDS011;11304;53.520;10.104;2022-12-29T12:35:14;4.43;;;1.08;;
22270;SDS011;11304;53.520;10.104;2022-12-29T12:45:30;7.38;;;1.50;;
22270;SDS011;11304;53.520;10.104;2022-12-29T12:50:39;8.93;;;1.65;;
22270;SDS011;11304;53.520;10.104;2022-12-29T13:06:34;9.13;;;1.42;;
22270;SDS011;11304;53.520;10.104;2022-12-29T13:09:16;4.03;;;1.10;;
22270;SDS011;11304;53.520;10.104;2022-12-29T13:16:48;3.53;;;1.40;;
22270;SDS011;11304;53.520;10.104;2022-12-29T13:22:02;8.00;;;1.83;;
22270;SDS011;11304;53.520;10.104;2022-12-29T13:27:28;6.03;;;1.20;;
22270;SDS011;11304;53.520;10.104;2022-12-29T13:30:00;5.93;;;1.17;;
22270;SDS011;11304;53.520;10.104;2022-12-29T13:37:55;7.07;;;1.50;;
22270;SDS011;11304;53.520;10.104;2022-12-29T13:40:24;8.82;;;1.08;;
22270;SDS011;11304;53.520;10.104;2022-12-29T13:42:52;7.25;;;1.10;;
22270;SDS011;11304;53.520;10.104;2022-12-29T13:45:19;10.25;;;1.48;;
22270;SDS011;11304;53.520;10.104;2022-12-29T13:47:49;10.90;;;1.38;;
22270;SDS011;11304;53.520;10.104;2022-12-29T13:50:19;4.70;;;1.08;;
22270;SDS011;11304;53.520;10.104;2022-12-29T13:52:52;5.05;;;1.02;;
22270;SDS011;11304;53.520;10.104;2022-12-29T13:55:37;7.30;;;1.38;;
22270;SDS011;11304;53.520;10.104;2022-12-29T14:05:44;7.63;;;1.33;;
22270;SDS011;11304;53.520;10.104;2022-12-29T14:08:15;3.85;;;1.15;;
22270;SDS011;11304;53.520;10.104;2022-12-29T14:10:47;5.43;;;1.50;;
22270;SDS011;11304;53.520;10.104;2022-12-29T14:13:20;6.43;;;1.40;;
22270;SDS011;11304;53.520;10.104;2022-12-29T14:15:54;8.65;;;1.50;;
22270;SDS011;11304;53.520;10.104;2022-12-29T14:18:24;6.20;;;1.50;;
22270;SDS011;11304;53.520;10.104;2022-12-29T14:20:58;6.18;;;1.40;;
22270;SDS011;11304;53.520;10.104;2022-12-29T14:23:46;8.40;;;1.38;;
22270;SDS011;11304;53.520;10.104;2022-12-29T14:26:15;6.47;;;1.15;;
22270;SDS011;11304;53.520;10.104;2022-12-29T14:28:43;6.80;;;1.65;;
22270;SDS011;11304;53.520;10.104;2022-12-29T14:36:34;7.40;;;1.30;;
22270;SDS011;11304;53.520;10.104;2022-12-29T14:39:00;5.32;;;1.20;;
22270;SDS011;11304;53.520;10.104;2022-12-29T14:41:29;3.80;;;1.08;;
22270;SDS011;11304;53.520;10.104;2022-12-29T14:44:00;2.85;;;1.08;;
22270;SDS011;11304;53.520;10.104;2022-12-29T14:46:49;2.95;;;1.05;;
22270;SDS011;11304;53.520;10.104;2022-12-29T14:49:18;6.20;;;1.10;;
22270;SDS011;11304;53.520;10.104;2022-12-29T14:51:44;6.90;;;1.25;;
22270;SDS011;11304;53.520;10.104;2022-12-29T14:56:58;6.40;;;1.10;;
22270;SDS011;11304;53.520;10.104;2022-12-29T14:59:24;5.57;;;1.30;;
22270;SDS011;11304;53.520;10.104;2022-12-29T15:01:52;8.52;;;1.90;;
22270;SDS011;11304;53.520;10.104;2022-12-29T15:04:21;7.22;;;1.33;;
22270;SDS011;11304;53.520;10.104;2022-12-29T15:06:48;6.13;;;1.30;;
22270;SDS011;11304;53.520;10.104;2022-12-29T15:11:51;6.25;;;1.35;;
22270;SDS011;11304;53.520;10.104;2022-12-29T15:14:28;5.28;;;1.20;;
22270;SDS011;11304;53.520;10.104;2022-12-29T15:16:55;5.20;;;1.55;;
22270;SDS011;11304;53.520;10.104;2022-12-29T15:19:23;6.85;;;1.73;;
22270;SDS011;11304;53.520;10.104;2022-12-29T15:21:49;6.22;;;1.73;;
22270;SDS011;11304;53.520;10.104;2022-12-29T15:24:15;6.18;;;1.65;;
22270;SDS011;11304;53.520;10.104;2022-12-29T15:26:42;6.22;;;1.50;;
22270;SDS011;11304;53.520;10.104;2022-12-29T15:31:54;5.00;;;1.23;;
22270;SDS011;11304;53.520;10.104;2022-12-29T15:34:21;10.10;;;2.03;;
22270;SDS011;11304;53.520;10.104;2022-12-29T15:36:49;7.07;;;1.40;;
22270;SDS011;11304;53.520;10.104;2022-12-29T15:39:34;9.68;;;1.83;;
22270;SDS011;11304;53.520;10.104;2022-12-29T15:42:15;7.07;;;1.65;;
22270;SDS011;11304;53.520;10.104;2022-12-29T15:44:42;6.35;;;1.80;;
22270;SDS011;11304;53.520;10.104;2022-12-29T15:49:38;5.45;;;1.83;;
22270;SDS011;11304;53.520;10.104;2022-12-29T15:52:07;7.82;;;1.80;;
22270;SDS011;11304;53.520;10.104;2022-12-29T15:54:34;8.75;;;1.88;;
22270;SDS011;11304;53.520;10.104;2022-12-29T15:57:00;7.35;;;2.13;;
22270;SDS011;11304;53.520;10.104;2022-12-29T15:59:30;9.18;;;2.15;;
22270;SDS011;11304;53.520;10.104;2022-12-29T16:01:58;9.10;;;1.90;;
22270;SDS011;11304;53.520;10.104;2022-12-29T16:04:25;8.45;;;1.90;;
22270;SDS011;11304;53.520;10.104;2022-12-29T16:06:56;12.73;;;2.13;;
22270;SDS011;11304;53.520;10.104;2022-12-29T16:09:33;11.65;;;2.20;;
22270;SDS011;11304;53.520;10.104;2022-12-29T16:12:01;9.43;;;1.63;;
22270;SDS011;11304;53.520;10.104;2022-12-29T16:14:42;8.60;;;1.70;;
22270;SDS011;11304;53.520;10.104;2022-12-29T16:17:11;6.90;;;1.90;;
22270;SDS011;11304;53.520;10.104;2022-12-29T16:19:39;6.80;;;2.08;;
22270;SDS011;11304;53.520;10.104;2022-12-29T16:22:10;6.60;;;1.70;;
22270;SDS011;11304;53.520;10.104;2022-12-29T16:24:37;7.55;;;1.63;;
22270;SDS011;11304;53.520;10.104;2022-12-29T16:29:30;8.50;;;1.90;;
22270;SDS011;11304;53.520;10.104;2022-12-29T16:31:57;11.13;;;2.17;;
22270;SDS011;11304;53.520;10.104;2022-12-29T16:34:33;7.30;;;2.03;;
22270;SDS011;11304;53.520;10.104;2022-12-29T16:41:52;8.00;;;2.35;;
22270;SDS011;11304;53.520;10.104;2022-12-29T16:44:28;9.23;;;2.05;;
22270;SDS011;11304;53.520;10.104;2022-12-29T16:49:27;8.35;;;2.30;;
22270;SDS011;11304;53.520;10.104;2022-12-29T16:51:55;8.32;;;2.42;;
22270;SDS011;11304;53.520;10.104;2022-12-29T16:54:23;7.93;;;1.95;;
22270;SDS011;11304;53.520;10.104;2022-12-29T16:56:49;10.93;;;2.30;;
22270;SDS011;11304;53.520;10.104;2022-12-29T17:01:42;9.32;;;2.22;;
22270;SDS011;11304;53.520;10.104;2022-12-29T17:04:08;9.27;;;2.17;;
22270;SDS011;11304;53.520;10.104;2022-12-29T17:06:35;6.45;;;1.80;;
22270;SDS011;11304;53.520;10.104;2022-12-29T17:09:01;8.15;;;1.77;;
22270;SDS011;11304;53.520;10.104;2022-12-29T17:11:28;7.78;;;2.40;;
22270;SDS011;11304;53.520;10.104;2022-12-29T17:14:29;7.72;;;2.33;;
22270;SDS011;11304;53.520;10.104;2022-12-29T17:16:56;8.88;;;2.45;;
22270;SDS011;11304;53.520;10.104;2022-12-29T17:19:32;9.15;;;2.30;;
22270;SDS011;11304;53.520;10.104;2022-12-29T17:21:59;7.55;;;2.17;;
22270;SDS011;11304;53.520;10.104;2022-12-29T17:24:25;6.05;;;1.98;;
22270;SDS011;11304;53.520;10.104;2022-12-29T17:26:52;7.93;;;2.30;;
22270;SDS011;11304;53.520;10.104;2022-12-29T17:32:01;8.60;;;2.58;;
22270;SDS011;11304;53.520;10.104;2022-12-29T17:34:28;11.10;;;2.20;;
22270;SDS011;11304;53.520;10.104;2022-12-29T17:36:54;10.15;;;1.95;;
22270;SDS011;11304;53.520;10.104;2022-12-29T17:39:20;8.02;;;2.08;;
22270;SDS011;11304;53.520;10.104;2022-12-29T17:41:46;11.02;;;2.17;;
22270;SDS011;11304;53.520;10.104;2022-12-29T17:44:17;7.90;;;2.00;;
22270;SDS011;11304;53.520;10.104;2022-12-29T17:46:44;6.43;;;2.00;;
22270;SDS011;11304;53.520;10.104;2022-12-29T17:49:14;10.55;;;2.30;;
22270;SDS011;11304;53.520;10.104;2022-12-29T17:51:41;9.95;;;2.20;;
22270;SDS011;11304;53.520;10.104;2022-12-29T17:54:21;7.18;;;2.10;;
22270;SDS011;11304;53.520;10.104;2022-12-29T17:56:47;8.32;;;2.08;;
22270;SDS011;11304;53.520;10.104;2022-12-29T17:59:13;7.53;;;2.80;;